Time;durP1;ratioP1;P1;durP2;ratioP2;P2;SDS_P1;SDS_P2;PMS_P1;PMS_P2;Temp;Humidity;BMP_temperature;BMP_pressure;BME280_temperature;BME280_humidity;BME280_pressure;Samples;Min_cycle;Max_cycle;Signal;HPM_P1;HPM_P2
2021/09/06 00:00:06;;;;;;;5.05;3.85;;;;;;;10.74;51.64;102367.06;5033830;28;20021;-66
2021/09/06 00:02:37;;;;;;;7.30;4.65;;;;;;;10.66;51.48;102363.72;5054465;28;20048;-67
2021/09/06 00:05:09;;;;;;;5.78;3.75;;;;;;;10.53;51.53;102363.94;5034494;28;20029;-66
2021/09/06 00:07:35;;;;;;;10.60;5.65;;;;;;;10.38;51.93;102361.53;5047591;28;20499;-67
2021/09/06 00:10:29;;;;;;;5.63;3.92;;;;;;;10.46;52.18;102364.03;5044011;28;20078;-67
2021/09/06 00:12:55;;;;;;;11.43;4.72;;;;;;;10.63;51.70;102367.25;5042348;28;20033;-67
2021/09/06 00:15:20;;;;;;;8.48;4.97;;;;;;;10.66;51.85;102361.09;5043362;28;20033;-67
2021/09/06 00:17:46;;;;;;;5.78;4.30;;;;;;;10.59;51.47;102356.00;5020876;28;20111;-66
2021/09/06 00:20:12;;;;;;;5.82;4.90;;;;;;;10.75;51.42;102353.97;5038372;28;20033;-67
2021/09/06 00:22:38;;;;;;;9.23;4.90;;;;;;;10.67;51.34;102358.47;5041315;28;20092;-67
2021/09/06 00:25:04;;;;;;;6.03;3.35;;;;;;;10.63;51.06;102346.31;5023197;28;20042;-67
2021/09/06 00:27:29;;;;;;;6.82;4.10;;;;;;;10.41;51.40;102344.09;5042700;28;20021;-67
2021/09/06 00:29:56;;;;;;;4.55;4.00;;;;;;;10.37;51.36;102347.63;5041711;28;20033;-68
2021/09/06 00:32:22;;;;;;;8.80;5.30;;;;;;;10.26;51.78;102348.66;5023887;28;20040;-66
2021/09/06 00:34:47;;;;;;;10.00;5.00;;;;;;;10.13;52.23;102342.78;5024263;28;20041;-68
2021/09/06 00:37:13;;;;;;;6.07;4.55;;;;;;;10.04;52.55;102346.38;5040406;28;20038;-67
2021/09/06 00:39:38;;;;;;;6.93;4.45;;;;;;;10.02;52.93;102340.31;5040887;28;20029;-67
2021/09/06 00:42:04;;;;;;;6.65;4.93;;;;;;;10.17;52.41;102347.94;5040539;28;20063;-68
2021/09/06 00:44:29;;;;;;;7.25;4.43;;;;;;;10.29;52.18;102340.78;5041711;28;20037;-68
2021/09/06 00:46:59;;;;;;;6.45;4.78;;;;;;;10.33;51.76;102340.72;5021520;28;20487;-67
2021/09/06 00:49:25;;;;;;;6.85;4.22;;;;;;;10.40;51.77;102336.25;5041622;28;20044;-67
2021/09/06 00:51:51;;;;;;;8.70;4.15;;;;;;;10.41;51.77;102332.75;5049655;28;20037;-67
2021/09/06 00:54:17;;;;;;;8.68;4.20;;;;;;;10.36;51.36;102338.03;5042799;28;20029;-67
2021/09/06 00:56:46;;;;;;;7.75;4.00;;;;;;;10.39;51.74;102340.63;5039791;28;20090;-67
2021/09/06 00:59:12;;;;;;;6.60;5.10;;;;;;;10.36;51.74;102342.41;5053673;28;20029;-67
2021/09/06 01:01:39;;;;;;;4.25;3.85;;;;;;;10.38;51.37;102343.25;5045905;28;20132;-68
2021/09/06 01:04:08;;;;;;;6.97;3.65;;;;;;;10.27;51.47;102339.94;5042545;28;20029;-66
2021/09/06 01:07:01;;;;;;;5.90;3.72;;;;;;;10.21;51.35;102349.63;5046161;28;20029;-68
2021/09/06 01:09:47;;;;;;;5.05;3.97;;;;;;;10.01;51.53;102342.06;5039444;28;20509;-68
2021/09/06 01:12:36;;;;;;;5.18;4.05;;;;;;;9.87;51.55;102349.22;5039912;28;20167;-69
2021/09/06 01:15:03;;;;;;;8.82;4.65;;;;;;;9.76;51.78;102346.69;5045175;28;20037;-67
2021/09/06 01:17:32;;;;;;;7.07;4.40;;;;;;;9.68;52.18;102353.78;5037443;28;20039;-67
2021/09/06 01:19:58;;;;;;;5.80;4.72;;;;;;;9.63;52.53;102355.56;5059284;28;20028;-66
2021/09/06 01:22:24;;;;;;;8.02;4.70;;;;;;;9.66;52.79;102344.25;5046938;28;20132;-68
2021/09/06 01:25:22;;;;;;;6.45;4.25;;;;;;;9.82;52.58;102358.88;5035535;28;20527;-67
2021/09/06 01:27:50;;;;;;;7.22;4.50;;;;;;;9.99;51.82;102358.63;5038902;28;20021;-69
2021/09/06 01:30:22;;;;;;;4.57;2.90;;;;;;;9.93;51.73;102362.19;5040019;28;20576;-66
2021/09/06 01:32:47;;;;;;;5.35;3.25;;;;;;;9.96;51.75;102364.75;5037671;28;20033;-67
2021/09/06 01:35:14;;;;;;;4.55;3.35;;;;;;;10.03;51.78;102365.53;5022665;28;20025;-67
2021/09/06 01:37:44;;;;;;;14.27;4.80;;;;;;;10.00;51.73;102361.22;5037757;28;20083;-66
2021/09/06 01:40:10;;;;;;;4.80;3.80;;;;;;;9.86;51.30;102362.31;5060331;28;20033;-68
2021/09/06 01:42:36;;;;;;;5.68;3.83;;;;;;;9.79;51.54;102362.38;5042897;28;20033;-67
2021/09/06 01:45:05;;;;;;;4.47;3.75;;;;;;;9.83;51.36;102357.97;5040882;28;20095;-67
2021/09/06 01:47:32;;;;;;;8.27;4.72;;;;;;;9.70;52.06;102357.25;5023750;28;20040;-68
2021/09/06 01:49:58;;;;;;;5.88;4.85;;;;;;;9.60;52.06;102360.84;5039143;28;20048;-68
2021/09/06 01:52:26;;;;;;;10.35;5.65;;;;;;;9.64;52.46;102364.28;5043279;28;20036;-68
2021/09/06 01:54:56;;;;;;;11.57;4.95;;;;;;;9.73;52.54;102357.19;5040504;28;20076;-67
2021/09/06 01:57:22;;;;;;;8.57;4.78;;;;;;;9.83;52.36;102349.28;5026693;28;20063;-68
2021/09/06 01:59:48;;;;;;;8.15;5.32;;;;;;;9.83;51.94;102354.50;5045430;28;20372;-67
2021/09/06 02:02:15;;;;;;;5.72;3.42;;;;;;;9.76;51.80;102357.16;5039101;28;20046;-69
2021/09/06 02:04:42;;;;;;;5.10;3.78;;;;;;;9.72;52.01;102354.59;5037080;28;20025;-67
2021/09/06 02:07:08;;;;;;;5.45;4.18;;;;;;;9.73;51.97;102345.91;5039446;28;20040;-68
2021/09/06 02:09:33;;;;;;;14.95;7.50;;;;;;;9.58;51.86;102357.38;5045522;28;20096;-67
2021/09/06 02:12:02;;;;;;;7.82;4.50;;;;;;;9.33;52.24;102349.84;5021169;28;20160;-68
2021/09/06 02:14:29;;;;;;;4.60;3.28;;;;;;;9.30;52.80;102351.66;5039048;28;20102;-67
2021/09/06 02:16:55;;;;;;;6.72;4.63;;;;;;;9.35;52.38;102352.44;5040819;28;20132;-68
2021/09/06 02:19:34;;;;;;;4.70;3.50;;;;;;;9.22;53.00;102343.03;5042655;28;20040;-67
2021/09/06 02:22:00;;;;;;;7.78;3.53;;;;;;;9.31;52.17;102348.13;5042677;28;20037;-66
2021/09/06 02:24:29;;;;;;;5.63;2.75;;;;;;;9.04;52.45;102349.31;5021721;28;20250;-68
2021/09/06 02:27:01;;;;;;;;;;;;;;;8.98;52.92;102339.78;5037239;28;20033;-68
2021/09/06 02:29:28;;;;;;;3.28;2.38;;;;;;;9.01;52.81;102337.16;5022072;28;20376;-67
2021/09/06 02:32:05;;;;;;;3.30;2.30;;;;;;;8.88;52.75;102346.84;5044040;28;20040;-68
2021/09/06 02:34:37;;;;;;;4.15;2.38;;;;;;;8.74;52.79;102340.91;5039706;28;20032;-68
2021/09/06 02:37:03;;;;;;;3.50;2.72;;;;;;;8.64;53.01;102349.63;5019707;28;20058;-67
2021/09/06 02:39:37;;;;;;;4.60;2.42;;;;;;;8.73;52.89;102339.16;5038165;28;20029;-67
2021/09/06 02:42:03;;;;;;;3.72;2.55;;;;;;;8.77;53.01;102339.09;5043466;28;20124;-67
2021/09/06 02:44:33;;;;;;;5.82;3.33;;;;;;;8.85;52.46;102340.78;5039009;28;20120;-68
2021/09/06 02:47:03;;;;;;;6.90;4.15;;;;;;;8.80;52.85;102340.81;5042891;28;20048;-69
2021/09/06 02:49:29;;;;;;;7.22;4.43;;;;;;;8.86;52.40;102340.78;5041884;28;20060;-68
2021/09/06 02:51:55;;;;;;;7.38;4.70;;;;;;;8.87;52.45;102336.41;5044198;28;20065;-68
2021/09/06 02:54:24;;;;;;;7.90;5.65;;;;;;;8.83;52.57;102334.72;5020286;28;20120;-68
2021/09/06 02:56:50;;;;;;;9.60;6.53;;;;;;;8.73;52.79;102329.59;5037782;28;20084;-68
2021/09/06 02:59:16;;;;;;;8.82;6.60;;;;;;;8.69;52.83;102338.28;5041590;28;20056;-67
2021/09/06 03:01:43;;;;;;;9.73;6.22;;;;;;;8.55;52.56;102338.38;5041971;28;20032;-67
2021/09/06 03:04:08;;;;;;;9.52;5.82;;;;;;;8.45;52.87;102339.34;5042684;28;20037;-69
2021/09/06 03:06:34;;;;;;;20.38;6.38;;;;;;;8.44;52.72;102345.44;5038281;28;20083;-68
2021/09/06 03:08:59;;;;;;;10.43;6.32;;;;;;;8.39;53.04;102339.41;5037247;28;20063;-68
2021/09/06 03:11:28;;;;;;;7.63;5.63;;;;;;;8.32;53.54;102332.50;5037660;28;20124;-68
2021/09/06 03:13:55;;;;;;;12.30;6.80;;;;;;;8.30;53.35;102332.50;5018634;28;20048;-68
2021/09/06 03:16:22;;;;;;;10.45;6.68;;;;;;;8.30;53.55;102332.50;5024434;28;20087;-67
2021/09/06 03:18:49;;;;;;;8.32;6.03;;;;;;;8.38;53.48;102337.66;5028674;22;20178;-68
2021/09/06 03:21:24;;;;;;;11.15;6.10;;;;;;;8.52;52.87;102330.59;4998616;28;20041;-69
2021/09/06 03:23:51;;;;;;;11.00;7.05;;;;;;;8.56;52.80;102331.44;4999297;28;20022;-68
2021/09/06 03:26:18;;;;;;;9.38;6.78;;;;;;;8.53;52.73;102332.31;5000176;28;20084;-68
2021/09/06 03:28:44;;;;;;;16.13;8.40;;;;;;;8.50;53.10;102334.09;4991556;28;20555;-68
2021/09/06 03:31:12;;;;;;;15.65;7.60;;;;;;;8.52;52.94;102329.75;4984137;28;20519;-68
2021/09/06 03:33:38;;;;;;;16.50;9.60;;;;;;;8.60;52.86;102332.28;4982903;28;20033;-68
2021/09/06 03:36:05;;;;;;;17.88;8.77;;;;;;;8.65;53.07;102339.19;4984045;28;20038;-68
2021/09/06 03:38:32;;;;;;;10.18;7.72;;;;;;;8.72;52.58;102327.88;4983204;28;20164;-68
2021/09/06 03:40:59;;;;;;;13.02;7.93;;;;;;;8.72;52.29;102338.28;4977648;28;20141;-68
2021/09/06 03:43:24;;;;;;;12.32;7.75;;;;;;;8.76;52.12;102339.13;4986338;28;20033;-68
2021/09/06 03:45:50;;;;;;;8.98;6.55;;;;;;;8.75;52.12;102338.25;4987116;28;20487;-68
2021/09/06 03:48:15;;;;;;;13.95;7.47;;;;;;;8.79;52.27;102330.44;4982469;28;20550;-68
2021/09/06 03:50:43;;;;;;;10.20;7.05;;;;;;;8.81;51.88;102339.97;4985703;28;20546;-68
2021/09/06 03:53:12;;;;;;;12.98;7.53;;;;;;;8.68;51.78;102340.91;4993332;28;20541;-68
2021/09/06 03:55:38;;;;;;;13.25;7.57;;;;;;;8.61;52.09;102339.25;5003375;28;20406;-69
2021/09/06 03:58:06;;;;;;;9.57;6.63;;;;;;;8.53;52.29;102345.34;4987723;28;20046;-68
2021/09/06 04:00:32;;;;;;;11.18;7.38;;;;;;;8.51;52.53;102347.09;5002524;28;20026;-68
2021/09/06 04:02:58;;;;;;;14.60;9.00;;;;;;;8.53;52.38;102347.09;4987868;28;20583;-68
2021/09/06 04:05:26;;;;;;;13.30;7.45;;;;;;;8.28;52.35;102346.44;4986633;28;21588;-68
2021/09/06 04:07:53;;;;;;;13.65;7.00;;;;;;;8.09;52.70;102349.16;5003179;28;20061;-68
2021/09/06 04:10:20;;;;;;;10.60;6.85;;;;;;;8.03;52.98;102341.38;4986883;28;20089;-68
2021/09/06 04:12:45;;;;;;;14.45;7.65;;;;;;;8.04;53.32;102350.03;4987550;28;20038;-69
2021/09/06 04:15:12;;;;;;;11.68;6.60;;;;;;;7.98;53.60;102343.16;4985636;28;20057;-68
2021/09/06 04:17:38;;;;;;;11.02;7.70;;;;;;;7.94;53.72;102349.25;4987386;28;20157;-68
2021/09/06 04:20:05;;;;;;;9.48;7.15;;;;;;;7.97;53.76;102346.63;4985474;28;20045;-69
2021/09/06 04:22:33;;;;;;;10.20;7.07;;;;;;;8.08;53.66;102355.22;4987034;28;20093;-69
2021/09/06 04:25:02;;;;;;;9.52;7.50;;;;;;;8.14;53.82;102359.53;4986151;28;20034;-69
2021/09/06 04:27:28;;;;;;;11.07;7.70;;;;;;;8.09;53.59;102358.69;4970980;28;20038;-68
2021/09/06 04:29:54;;;;;;;12.32;7.93;;;;;;;8.22;53.84;102362.09;5002479;28;20037;-68
2021/09/06 04:32:20;;;;;;;9.73;6.72;;;;;;;8.35;53.29;102355.94;4987114;28;20430;-68
2021/09/06 04:34:45;;;;;;;11.48;7.15;;;;;;;8.41;53.00;102358.50;4988014;28;20463;-68
2021/09/06 04:37:11;;;;;;;8.25;6.70;;;;;;;8.39;52.82;102357.63;4986271;28;20567;-68
2021/09/06 04:39:42;;;;;;;9.00;6.20;;;;;;;8.20;53.09;102356.03;4985423;28;20026;-68
2021/09/06 04:42:08;;;;;;;7.03;5.75;;;;;;;8.14;52.83;102357.81;4986463;28;20038;-68
2021/09/06 04:44:34;;;;;;;7.30;6.30;;;;;;;8.05;53.44;102368.28;4986053;28;20053;-68
2021/09/06 04:47:00;;;;;;;7.63;6.03;;;;;;;8.09;53.77;102359.56;5002644;28;20046;-68
2021/09/06 04:49:26;;;;;;;16.20;10.25;;;;;;;8.10;53.73;102369.09;4985246;28;20038;-69
2021/09/06 04:51:51;;;;;;;7.35;6.47;;;;;;;8.11;53.70;102365.66;4986049;28;20077;-70
2021/09/06 04:54:19;;;;;;;6.65;5.97;;;;;;;8.13;53.67;102370.81;4985154;28;20034;-68
2021/09/06 04:56:45;;;;;;;5.70;5.10;;;;;;;8.15;53.95;102374.28;5001234;28;20030;-67
2021/09/06 04:59:11;;;;;;;6.70;5.38;;;;;;;8.24;53.92;102373.38;4985165;28;20122;-70
2021/09/06 05:01:37;;;;;;;8.50;6.07;;;;;;;8.43;53.38;102369.78;4976637;28;20034;-68
2021/09/06 05:04:03;;;;;;;7.55;5.35;;;;;;;8.48;53.07;102368.00;4984222;28;20034;-70
2021/09/06 05:06:30;;;;;;;6.90;6.20;;;;;;;8.72;52.55;102373.94;5001134;28;20374;-69
2021/09/06 05:08:57;;;;;;;7.90;5.30;;;;;;;8.63;52.50;102377.44;5000859;28;20066;-70
2021/09/06 05:11:23;;;;;;;6.50;5.55;;;;;;;8.58;52.16;102381.81;4985731;28;20443;-70
2021/09/06 05:13:49;;;;;;;7.07;5.00;;;;;;;8.67;52.78;102380.88;4985394;28;20134;-70
2021/09/06 05:16:16;;;;;;;8.00;4.72;;;;;;;8.79;52.45;102380.81;4986672;28;20509;-69
2021/09/06 05:18:44;;;;;;;5.70;5.10;;;;;;;8.97;52.13;102390.22;4972949;28;20274;-68
2021/09/06 05:21:11;;;;;;;5.95;4.95;;;;;;;9.16;51.69;102386.56;4984934;28;20033;-68
2021/09/06 05:23:37;;;;;;;7.03;5.15;;;;;;;9.28;50.90;102390.78;4969487;28;20406;-68
2021/09/06 05:26:03;;;;;;;6.80;5.53;;;;;;;9.38;51.26;102395.00;4985231;28;20092;-68
2021/09/06 05:28:29;;;;;;;10.52;6.43;;;;;;;9.33;50.80;102393.34;4985249;28;20446;-68
2021/09/06 05:30:55;;;;;;;7.80;4.95;;;;;;;9.29;50.76;102395.09;4984416;28;20395;-70
2021/09/06 05:33:22;;;;;;;9.68;6.60;;;;;;;9.29;50.60;102387.28;4984461;28;20102;-68
2021/09/06 05:35:50;;;;;;;6.75;5.53;;;;;;;9.40;51.07;102390.63;4999406;28;20097;-70
2021/09/06 05:38:15;;;;;;;6.78;6.00;;;;;;;9.50;50.53;102387.94;4984691;28;20504;-70
2021/09/06 05:41:19;;;;;;;6.05;5.45;;;;;;;9.64;50.41;102390.41;4950569;28;20508;-68
2021/09/06 05:43:46;;;;;;;6.38;5.20;;;;;;;9.87;50.40;102392.75;4966692;28;20141;-67
2021/09/06 05:46:11;;;;;;;7.20;5.30;;;;;;;10.16;48.85;102393.22;4984077;28;20041;-70
2021/09/06 05:48:37;;;;;;;7.38;5.53;;;;;;;10.72;48.67;102398.47;4987085;28;20033;-69
2021/09/06 05:51:03;;;;;;;7.45;5.18;;;;;;;11.87;46.36;102390.28;4984105;28;20049;-69
2021/09/06 05:53:47;;;;;;;4.97;4.47;;;;;;;13.65;43.02;102390.25;4998980;28;20053;-68
2021/09/06 05:56:18;;;;;;;5.38;4.03;;;;;;;15.80;37.68;102385.75;4966936;28;20033;-70
2021/09/06 05:58:45;;;;;;;3.83;3.45;;;;;;;17.65;34.48;102385.06;4990678;28;20626;-68
2021/09/06 06:01:11;;;;;;;5.03;3.28;;;;;;;18.58;30.49;102391.25;4983652;28;20112;-69
2021/09/06 06:03:38;;;;;;;2.63;2.40;;;;;;;19.12;31.00;102385.88;4985192;28;20122;-69
2021/09/06 06:06:22;;;;;;;4.20;2.83;;;;;;;19.23;29.63;102388.81;4967982;28;20045;-68
2021/09/06 06:08:51;;;;;;;3.90;2.60;;;;;;;18.86;31.02;102385.41;4974429;28;20046;-68
2021/09/06 06:11:17;;;;;;;2.60;2.00;;;;;;;20.04;29.27;102383.53;4988710;28;20114;-68
2021/09/06 06:13:44;;;;;;;4.05;2.67;;;;;;;20.78;27.24;102387.25;4989292;28;20683;-68
2021/09/06 06:16:10;;;;;;;3.45;2.92;;;;;;;21.17;27.04;102378.69;4967535;28;20068;-68
2021/09/06 06:18:38;;;;;;;3.38;2.90;;;;;;;21.54;26.95;102387.06;4998555;28;20028;-68
2021/09/06 06:21:06;;;;;;;2.75;2.45;;;;;;;21.77;26.80;102373.13;4986012;28;20045;-67
2021/09/06 06:23:51;;;;;;;2.20;2.00;;;;;;;21.93;26.52;102367.66;4984861;28;20579;-68
2021/09/06 06:26:39;;;;;;;3.00;2.15;;;;;;;22.54;25.58;102370.78;4982758;28;20108;-68
2021/09/06 06:29:08;;;;;;;2.53;2.30;;;;;;;22.24;25.63;102380.81;4981830;28;20034;-67
2021/09/06 06:31:34;;;;;;;2.88;1.88;;;;;;;20.33;30.02;102381.91;4978585;28;20061;-67
2021/09/06 06:34:00;;;;;;;2.70;2.40;;;;;;;18.86;30.88;102383.63;4981475;28;20068;-67
2021/09/06 06:36:26;;;;;;;3.72;2.90;;;;;;;18.24;32.64;102382.34;4999607;28;20418;-67
2021/09/06 06:38:52;;;;;;;6.05;3.45;;;;;;;18.90;31.42;102381.72;4996023;28;20068;-68
2021/09/06 06:41:19;;;;;;;3.50;2.20;;;;;;;19.95;31.32;102384.91;4981163;28;20137;-67
2021/09/06 06:43:56;;;;;;;4.68;3.35;;;;;;;21.12;28.58;102381.63;4983290;28;20510;-69
2021/09/06 06:46:21;;;;;;;3.97;2.67;;;;;;;23.97;25.97;102391.94;4982643;28;20034;-69
2021/09/06 06:48:49;;;;;;;2.33;1.83;;;;;;;25.77;22.90;102386.06;4998142;28;20037;-69
2021/09/06 06:51:20;;;;;;;3.17;2.40;;;;;;;26.42;21.47;102397.66;4982513;28;20042;-67
2021/09/06 06:53:46;;;;;;;3.72;3.25;;;;;;;26.43;21.30;102396.72;4986922;28;20038;-68
2021/09/06 06:56:14;;;;;;;5.03;3.85;;;;;;;26.01;22.31;102399.28;4983123;28;20030;-69
2021/09/06 06:58:40;;;;;;;5.28;3.78;;;;;;;25.14;25.13;102399.13;4982877;28;22770;-69
2021/09/06 07:01:09;;;;;;;6.35;3.42;;;;;;;26.66;22.83;102406.34;4999191;28;20034;-68
2021/09/06 07:03:36;;;;;;;4.03;2.85;;;;;;;27.55;21.76;102404.97;4981389;28;20022;-68
2021/09/06 07:06:02;;;;;;;5.05;3.25;;;;;;;26.97;21.72;102414.44;4981950;28;20038;-68
2021/09/06 07:08:29;;;;;;;3.17;2.88;;;;;;;26.68;22.56;102412.41;4981266;28;20048;-67
2021/09/06 07:10:55;;;;;;;4.60;4.15;;;;;;;26.47;23.21;102416.91;4981271;28;20030;-68
2021/09/06 07:13:20;;;;;;;4.07;3.60;;;;;;;26.22;22.96;102410.94;4982041;28;20435;-68
2021/09/06 07:15:47;;;;;;;3.90;3.47;;;;;;;28.10;21.57;102418.81;4982764;28;20034;-68
2021/09/06 07:18:14;;;;;;;5.05;4.22;;;;;;;29.24;20.20;102419.81;4979022;28;20030;-68
2021/09/06 07:20:40;;;;;;;4.57;3.20;;;;;;;28.83;21.39;102415.66;4983063;28;20036;-68
2021/09/06 07:23:05;;;;;;;5.43;4.00;;;;;;;28.60;20.69;102415.94;4983405;28;20203;-68
2021/09/06 07:25:36;;;;;;;7.60;5.88;;;;;;;28.36;21.02;102408.34;4982490;28;20122;-68
2021/09/06 07:28:03;;;;;;;4.47;4.05;;;;;;;27.77;22.75;102418.19;4998020;28;20608;-69
2021/09/06 07:30:28;;;;;;;4.55;3.15;;;;;;;27.34;22.74;102416.63;4981830;28;20434;-68
2021/09/06 07:32:56;;;;;;;5.10;4.05;;;;;;;27.34;23.53;102411.25;4981852;28;20042;-69
2021/09/06 07:35:23;;;;;;;4.80;3.50;;;;;;;28.26;22.69;102415.56;4982471;28;20077;-69
2021/09/06 07:37:50;;;;;;;5.68;3.83;;;;;;;27.61;23.61;102425.88;4981851;28;20125;-68
2021/09/06 07:40:16;;;;;;;5.68;4.65;;;;;;;26.74;23.30;102423.59;4982517;28;20056;-68
2021/09/06 07:42:47;;;;;;;5.88;3.80;;;;;;;28.07;21.97;102424.44;4983602;28;20030;-68
2021/09/06 07:45:13;;;;;;;7.60;4.43;;;;;;;27.84;22.78;102415.78;4983076;28;20114;-67
2021/09/06 07:47:39;;;;;;;7.20;4.28;;;;;;;28.63;22.53;102421.06;4985011;28;20026;-69
2021/09/06 07:50:09;;;;;;;5.93;3.72;;;;;;;29.23;20.92;102428.00;4988082;28;20318;-69
2021/09/06 07:52:35;;;;;;;4.05;2.65;;;;;;;30.50;21.10;102425.34;4984659;28;20133;-69
2021/09/06 07:55:05;;;;;;;8.57;4.05;;;;;;;30.75;19.99;102429.94;4965992;28;20314;-69
2021/09/06 07:57:32;;;;;;;6.63;3.83;;;;;;;30.24;19.91;102431.53;4998805;28;20038;-69
2021/09/06 07:59:57;;;;;;;5.90;3.55;;;;;;;28.60;21.74;102436.63;4979708;28;20492;-69
2021/09/06 08:02:23;;;;;;;5.10;3.28;;;;;;;28.48;23.39;102438.63;4982595;28;20140;-69
2021/09/06 08:04:51;;;;;;;11.38;4.40;;;;;;;27.97;23.85;102439.72;4980005;28;20519;-69
2021/09/06 08:07:17;;;;;;;7.07;3.90;;;;;;;27.79;23.99;102443.06;4986618;28;20062;-69
2021/09/06 08:09:43;;;;;;;6.32;4.25;;;;;;;27.22;25.03;102444.53;4989858;28;20033;-68
2021/09/06 08:12:09;;;;;;;4.25;2.22;;;;;;;27.05;25.42;102445.94;4981055;28;20038;-69
2021/09/06 08:14:35;;;;;;;5.47;3.72;;;;;;;27.15;25.41;102446.06;4984211;28;20029;-69
2021/09/06 08:17:00;;;;;;;8.00;4.55;;;;;;;27.34;24.22;102448.84;4983949;28;20113;-68
2021/09/06 08:19:28;;;;;;;6.45;3.30;;;;;;;27.77;24.20;102442.34;4982048;28;20538;-69
2021/09/06 08:21:56;;;;;;;4.43;3.00;;;;;;;27.16;26.51;102445.06;4982758;28;20074;-69
2021/09/06 08:24:23;;;;;;;4.50;3.50;;;;;;;26.67;25.05;102450.09;4981722;28;20030;-69
2021/09/06 08:26:50;;;;;;;6.55;3.03;;;;;;;26.21;27.35;102449.41;4966879;28;20046;-69
2021/09/06 08:29:16;;;;;;;6.85;3.50;;;;;;;26.50;26.47;102454.19;4998117;28;20494;-69
2021/09/06 08:31:41;;;;;;;6.57;4.00;;;;;;;25.94;26.89;102457.03;4997735;28;20068;-69
2021/09/06 08:34:07;;;;;;;4.28;3.35;;;;;;;26.19;27.73;102450.53;4982644;28;20093;-69
2021/09/06 08:36:37;;;;;;;5.50;4.15;;;;;;;25.24;29.26;102453.59;4966710;28;20129;-68
2021/09/06 08:39:03;;;;;;;5.80;3.58;;;;;;;25.37;28.41;102462.38;4985733;28;20370;-69
2021/09/06 08:41:30;;;;;;;5.88;4.15;;;;;;;25.57;27.63;102449.25;4989404;28;20042;-69
2021/09/06 08:43:57;;;;;;;6.43;4.20;;;;;;;26.71;27.08;102456.91;4986674;28;20396;-69
2021/09/06 08:46:24;;;;;;;10.30;3.35;;;;;;;27.84;25.85;102454.25;4984874;28;20038;-69
2021/09/06 08:48:51;;;;;;;5.93;3.00;;;;;;;28.29;24.99;102455.59;4976178;28;20073;-69
2021/09/06 08:51:17;;;;;;;7.05;3.42;;;;;;;28.44;23.53;102453.34;4989476;28;20042;-68
2021/09/06 08:53:44;;;;;;;4.68;3.28;;;;;;;27.16;25.42;102466.53;4984919;28;20027;-69
2021/09/06 08:56:09;;;;;;;6.88;4.05;;;;;;;25.66;28.33;102469.94;4984579;28;20065;-69
2021/09/06 08:58:37;;;;;;;5.43;3.53;;;;;;;24.29;31.08;102466.16;4989172;28;20036;-68
2021/09/06 09:01:03;;;;;;;8.48;4.18;;;;;;;23.53;32.36;102479.56;4986890;28;20034;-68
2021/09/06 09:03:42;;;;;;;12.82;5.53;;;;;;;23.41;33.48;102475.94;4985181;28;20389;-67
2021/09/06 09:06:25;;;;;;;5.07;3.80;;;;;;;23.48;33.04;102475.50;4985339;28;20509;-67
2021/09/06 09:09:37;;;;;;;8.40;4.22;;;;;;;22.73;32.79;102478.81;4982004;28;20042;-68
2021/09/06 09:12:41;;;;;;;8.27;4.78;;;;;;;22.01;35.19;102492.31;4945780;28;20047;-68
2021/09/06 09:15:28;;;;;;;9.27;5.18;;;;;;;21.75;34.88;102489.47;4915325;28;20565;-67
2021/09/06 09:18:10;;;;;;;7.35;4.50;;;;;;;21.34;36.82;102487.53;4954037;28;20049;-65
2021/09/06 09:20:44;;;;;;;11.00;5.65;;;;;;;21.09;36.39;102495.28;4988135;28;20516;-66
2021/09/06 09:23:20;;;;;;;9.13;4.15;;;;;;;21.27;36.46;102494.16;5003750;28;20089;-67
2021/09/06 09:26:00;;;;;;;9.20;5.28;;;;;;;21.66;34.46;102492.69;4989183;28;20351;-67
2021/09/06 09:28:46;;;;;;;9.00;4.55;;;;;;;21.97;34.79;102491.63;4987794;28;20518;-68
2021/09/06 09:31:35;;;;;;;10.02;4.72;;;;;;;22.57;33.82;102489.59;4990559;28;20034;-68
2021/09/06 09:34:25;;;;;;;10.02;4.63;;;;;;;22.99;32.10;102485.91;4985746;28;20357;-67
2021/09/06 09:37:05;;;;;;;12.55;7.55;;;;;;;22.80;33.02;102490.75;4986059;28;20109;-68
2021/09/06 09:39:33;;;;;;;10.05;6.18;;;;;;;23.22;33.07;102496.81;4989803;28;20031;-67
2021/09/06 09:42:09;;;;;;;8.98;5.30;;;;;;;23.31;33.25;102484.69;4988548;28;20518;-67
2021/09/06 09:44:53;;;;;;;8.75;5.97;;;;;;;23.49;31.36;102485.22;4990498;28;20034;-67
2021/09/06 09:47:37;;;;;;;6.85;4.75;;;;;;;24.03;31.44;102488.47;4990507;28;20089;-67
2021/09/06 09:50:03;;;;;;;9.35;5.20;;;;;;;24.37;29.96;102479.78;4995625;28;20034;-67
2021/09/06 09:52:30;;;;;;;6.93;4.10;;;;;;;24.78;27.73;102478.53;4991052;28;20046;-69
2021/09/06 09:54:55;;;;;;;6.80;4.30;;;;;;;23.92;29.95;102480.34;4989920;28;20086;-66
2021/09/06 09:57:25;;;;;;;8.77;5.65;;;;;;;24.47;29.32;102466.63;4987048;28;20026;-68
2021/09/06 09:59:53;;;;;;;9.88;4.57;;;;;;;25.74;27.59;102464.84;4988227;28;20111;-67
2021/09/06 10:02:26;;;;;;;5.43;3.83;;;;;;;26.02;28.00;102475.97;4970886;28;20046;-67
2021/09/06 10:04:54;;;;;;;7.75;4.07;;;;;;;25.43;28.28;102464.56;4988449;28;20038;-67
2021/09/06 10:07:25;;;;;;;5.97;5.00;;;;;;;25.97;27.46;102464.78;4988010;28;20023;-67
2021/09/06 10:09:52;;;;;;;9.27;6.22;;;;;;;25.69;27.80;102464.38;4980465;28;20022;-66
2021/09/06 10:12:30;;;;;;;5.88;4.22;;;;;;;26.05;27.20;102454.31;4987075;28;20042;-68
2021/09/06 10:15:01;;;;;;;8.38;4.90;;;;;;;25.61;28.11;102456.09;4978002;28;20031;-68
2021/09/06 10:17:49;;;;;;;7.93;4.18;;;;;;;26.52;26.73;102462.09;4987192;28;20439;-67
2021/09/06 10:20:18;;;;;;;6.35;4.82;;;;;;;26.19;27.54;102462.09;4961877;28;20030;-67
2021/09/06 10:23:00;;;;;;;8.18;4.00;;;;;;;26.27;26.57;102459.63;4989230;28;20467;-67
2021/09/06 10:25:31;;;;;;;6.15;3.90;;;;;;;26.11;27.51;102464.53;5003595;28;20061;-67
2021/09/06 10:28:02;;;;;;;7.90;3.67;;;;;;;25.18;27.84;102467.47;4979205;28;20053;-68
2021/09/06 10:30:52;;;;;;;7.38;2.85;;;;;;;24.91;28.09;102467.75;5002467;28;20035;-67
2021/09/06 10:33:24;;;;;;;7.65;3.97;;;;;;;25.11;27.45;102468.91;4994226;28;20054;-66
2021/09/06 10:35:50;;;;;;;4.35;2.15;;;;;;;25.54;26.99;102468.25;4992066;28;20073;-68
2021/09/06 10:38:16;;;;;;;4.20;2.33;;;;;;;25.52;26.11;102468.38;4991310;28;20506;-67
2021/09/06 10:40:45;;;;;;;3.70;2.38;;;;;;;25.86;25.48;102461.16;4987810;28;20034;-67
2021/09/06 10:43:12;;;;;;;2.92;1.83;;;;;;;24.97;26.76;102465.50;4990129;28;20027;-68
2021/09/06 10:45:39;;;;;;;5.47;2.13;;;;;;;24.80;28.05;102465.91;5002906;28;20403;-68
2021/09/06 10:48:05;;;;;;;6.05;1.45;;;;;;;24.95;27.82;102461.19;4985873;28;20038;-69
2021/09/06 10:50:36;;;;;;;2.75;1.40;;;;;;;24.69;26.85;102457.84;4987707;28;20034;-67
2021/09/06 10:53:03;;;;;;;;;;;;;;;24.78;26.98;102468.69;4988946;28;20038;-68
2021/09/06 10:55:28;;;;;;;2.78;1.77;;;;;;;24.31;27.78;102469.56;4987986;28;19918;-67
2021/09/06 10:57:54;;;;;;;3.55;1.67;;;;;;;24.20;27.83;102463.19;4985559;28;20323;-68
2021/09/06 11:00:23;;;;;;;3.38;1.58;;;;;;;23.94;27.93;102472.25;4985204;28;20034;-68
2021/09/06 11:02:52;;;;;;;2.95;1.23;;;;;;;24.06;28.06;102473.16;4989327;28;20042;-68
2021/09/06 11:05:24;;;;;;;4.15;1.20;;;;;;;23.75;27.51;102468.22;4988578;28;20023;-68
2021/09/06 11:07:51;;;;;;;4.35;1.55;;;;;;;24.41;27.17;102466.13;4987832;28;20023;-68
2021/09/06 11:10:20;;;;;;;2.67;1.30;;;;;;;23.82;28.41;102468.63;4963167;28;20030;-68
2021/09/06 11:12:57;;;;;;;5.00;2.17;;;;;;;23.95;28.22;102476.63;4985607;28;20044;-67
2021/09/06 11:15:31;;;;;;;3.65;1.27;;;;;;;24.21;27.89;102459.56;4986576;28;20041;-68
2021/09/06 11:17:58;;;;;;;5.07;0.90;;;;;;;24.46;27.08;102468.47;5002707;28;20393;-68
2021/09/06 11:20:27;;;;;;;2.40;0.82;;;;;;;24.56;26.98;102463.25;4990052;28;20069;-68
2021/09/06 11:23:00;;;;;;;3.22;1.42;;;;;;;24.27;28.03;102458.25;4982177;28;20034;-69
2021/09/06 11:25:29;;;;;;;3.22;1.10;;;;;;;24.33;27.57;102465.81;4983615;28;20093;-68
2021/09/06 11:28:13;;;;;;;1.85;1.17;;;;;;;24.24;28.19;102463.81;4997982;28;20564;-68
2021/09/06 11:30:44;;;;;;;4.25;1.10;;;;;;;24.71;26.09;102451.41;4985338;28;20129;-68
2021/09/06 11:33:11;;;;;;;5.47;1.20;;;;;;;24.45;27.01;102461.38;4984048;28;20022;-68
2021/09/06 11:35:42;;;;;;;1.48;0.85;;;;;;;24.23;26.92;102462.94;4988253;28;20117;-69